createdAt,value
2022-11-09T00:02:09.210Z,449.70
2022-11-09T00:04:57.169Z,437.98
2022-11-09T00:07:45.086Z,432.27
2022-11-09T00:10:33.254Z,429.63
2022-11-09T00:13:21.867Z,429.05
2022-11-09T00:16:12.523Z,381.60
2022-11-09T00:19:01.817Z,384.98
2022-11-09T00:21:50.033Z,362.77
2022-11-09T00:24:37.929Z,368.67
2022-11-09T00:27:25.827Z,351.33
2022-11-09T00:30:14.042Z,354.85
2022-11-09T00:33:01.974Z,359.23
2022-11-09T00:35:51.255Z,350.80
2022-11-09T00:38:40.697Z,328.23
2022-11-09T00:41:29.110Z,323.70
2022-11-09T00:44:17.074Z,328.33
2022-11-09T00:47:05.511Z,330.90
2022-11-09T00:49:53.410Z,322.23
2022-11-09T00:52:42.770Z,329.45
2022-11-09T00:55:30.679Z,328.17
2022-11-09T00:58:18.820Z,325.77
2022-11-09T01:01:08.713Z,327.00
2022-11-09T01:03:56.710Z,324.02
2022-11-09T01:06:44.826Z,339.98
2022-11-09T01:09:34.240Z,333.85
2022-11-09T01:12:22.137Z,362.55
2022-11-09T01:15:12.552Z,339.50
2022-11-09T01:18:00.504Z,361.73
2022-11-09T01:20:49.739Z,372.58
2022-11-09T01:23:38.260Z,373.10
2022-11-09T01:26:27.538Z,361.95
2022-11-09T01:29:15.488Z,384.38
2022-11-09T01:32:03.480Z,376.30
2022-11-09T01:34:52.843Z,364.45
2022-11-09T01:37:40.751Z,369.23
2022-11-09T01:40:32.015Z,360.65
2022-11-09T01:43:24.466Z,353.95
2022-11-09T01:46:19.055Z,382.52
2022-11-09T01:49:14.285Z,357.05
2022-11-09T01:52:07.024Z,369.10
2022-11-09T01:55:00.097Z,382.77
2022-11-09T01:57:52.989Z,385.45
2022-11-09T02:00:46.942Z,387.40
2022-11-09T02:03:38.767Z,382.55
2022-11-09T02:06:29.944Z,372.05
2022-11-09T02:09:27.673Z,398.45
2022-11-09T02:12:18.487Z,360.27
2022-11-09T02:15:11.243Z,389.42
2022-11-09T02:18:01.260Z,371.77
2022-11-09T02:20:53.126Z,383.50
2022-11-09T02:23:43.621Z,390.45
2022-11-09T02:26:35.691Z,413.15
2022-11-09T02:29:27.248Z,365.98
2022-11-09T02:32:20.620Z,386.70
2022-11-09T02:35:10.532Z,369.90
2022-11-09T02:37:59.862Z,408.77
2022-11-09T02:40:52.768Z,359.40
2022-11-09T02:43:41.728Z,384.58
2022-11-09T02:46:34.521Z,392.13
2022-11-09T02:49:23.033Z,387.90
2022-11-09T02:52:11.019Z,365.45
2022-11-09T02:55:00.966Z,396.27
2022-11-09T02:57:48.966Z,371.13
2022-11-09T03:00:37.284Z,377.20
2022-11-09T03:03:25.918Z,386.10
2022-11-09T03:06:14.199Z,404.25
2022-11-09T03:09:09.700Z,389.20
2022-11-09T03:11:59.017Z,398.67
2022-11-09T03:14:47.001Z,389.35
2022-11-09T03:17:35.947Z,416.50
2022-11-09T03:20:24.026Z,409.45
2022-11-09T03:23:12.693Z,394.15
2022-11-09T03:26:01.448Z,405.55
2022-11-09T03:28:51.725Z,398.65
2022-11-09T03:31:39.801Z,415.48
2022-11-09T03:34:30.664Z,396.35
2022-11-09T03:37:18.908Z,402.08
2022-11-09T03:40:08.259Z,392.15
2022-11-09T03:42:56.179Z,394.40
2022-11-09T03:45:47.404Z,399.73
2022-11-09T03:48:35.363Z,393.73
2022-11-09T03:51:23.471Z,401.92
2022-11-09T03:54:11.407Z,373.92
2022-11-09T03:56:59.365Z,409.85
2022-11-09T03:59:47.283Z,384.73
2022-11-09T04:02:36.619Z,370.30
2022-11-09T04:05:25.080Z,373.05
2022-11-09T04:08:13.024Z,383.50
2022-11-09T04:11:01.230Z,388.77
2022-11-09T04:13:49.159Z,390.55
2022-11-09T04:16:37.282Z,391.05
2022-11-09T04:19:26.571Z,400.70
2022-11-09T04:22:14.581Z,379.40
2022-11-09T04:25:02.624Z,383.15
2022-11-09T04:27:55.439Z,386.20
2022-11-09T04:30:43.820Z,396.75
2022-11-09T04:33:31.798Z,371.60
2022-11-09T04:36:21.123Z,402.55
2022-11-09T04:39:09.324Z,389.95
2022-11-09T04:41:57.248Z,387.75
2022-11-09T04:44:45.178Z,393.85
2022-11-09T04:47:33.422Z,375.13
2022-11-09T04:50:21.398Z,396.05
2022-11-09T04:53:16.315Z,394.25
2022-11-09T04:56:05.168Z,389.25
2022-11-09T04:58:53.161Z,378.80
2022-11-09T05:01:41.159Z,378.33
2022-11-09T05:04:29.112Z,418.23
2022-11-09T05:07:17.125Z,376.15
2022-11-09T05:10:07.176Z,394.98
2022-11-09T05:12:58.625Z,406.52
2022-11-09T05:15:46.605Z,386.52
2022-11-09T05:18:34.628Z,377.55
2022-11-09T05:21:22.708Z,392.42
2022-11-09T05:24:09.991Z,410.35
2022-11-09T05:26:59.290Z,402.75
2022-11-09T05:29:47.207Z,396.33
2022-11-09T05:32:37.381Z,375.10
2022-11-09T05:35:25.651Z,395.25
2022-11-09T05:38:13.621Z,390.45
2022-11-09T05:41:01.538Z,421.98
2022-11-09T05:43:51.033Z,412.35
2022-11-09T05:46:39.010Z,394.52
2022-11-09T05:49:26.939Z,396.63
2022-11-09T05:52:14.861Z,406.23
2022-11-09T05:55:02.925Z,408.33
2022-11-09T05:57:50.838Z,407.77
2022-11-09T06:00:40.105Z,398.15
2022-11-09T06:03:28.045Z,400.63
2022-11-09T06:06:17.768Z,406.95
2022-11-09T06:09:05.709Z,419.02
2022-11-09T06:11:53.724Z,417.05
2022-11-09T06:14:41.670Z,429.73
2022-11-09T06:17:30.964Z,398.88
2022-11-09T06:20:18.926Z,425.85
2022-11-09T06:23:06.943Z,427.83
2022-11-09T06:25:58.608Z,395.58
2022-11-09T06:28:46.536Z,405.30
2022-11-09T06:31:34.930Z,394.73
2022-11-09T06:34:24.215Z,413.10
2022-11-09T06:37:12.142Z,398.52
2022-11-09T06:40:00.111Z,407.30
2022-11-09T06:42:48.311Z,417.58
2022-11-09T06:45:36.705Z,414.13
2022-11-09T06:48:24.941Z,423.38
2022-11-09T06:51:14.199Z,417.52
2022-11-09T06:54:02.104Z,401.38
2022-11-09T06:56:50.045Z,388.48
2022-11-09T06:59:37.951Z,401.92
2022-11-09T07:02:25.899Z,397.52
2022-11-09T07:04:53.583Z,392.98
2022-11-09T07:07:27.728Z,421.05
2022-11-09T07:09:57.337Z,426.85
2022-11-09T07:12:25.008Z,417.25
2022-11-09T07:14:52.651Z,427.23
2022-11-09T07:17:20.304Z,430.45
2022-11-09T07:19:48.032Z,412.20
2022-11-09T07:22:15.711Z,415.35
2022-11-09T07:24:44.761Z,435.95
2022-11-09T07:27:12.385Z,427.27
2022-11-09T07:29:39.995Z,401.02
2022-11-09T07:32:07.643Z,417.65
2022-11-09T07:34:35.261Z,429.75
2022-11-09T07:37:03.018Z,423.80
2022-11-09T07:39:30.679Z,417.05
2022-11-09T07:41:59.657Z,422.85
2022-11-09T07:44:28.293Z,416.08
2022-11-09T07:46:55.898Z,405.30
2022-11-09T07:49:23.560Z,434.23
2022-11-09T07:51:51.266Z,414.30
2022-11-09T07:54:18.872Z,413.15
2022-11-09T07:56:46.516Z,433.65
2022-11-09T07:59:15.471Z,411.20
2022-11-09T08:01:43.229Z,423.88
2022-11-09T08:04:10.890Z,416.90
2022-11-09T08:06:38.874Z,403.48
2022-11-09T08:09:06.562Z,427.70
2022-11-09T08:11:34.204Z,370.33
2022-11-09T08:14:01.851Z,391.05
2022-11-09T08:16:36.483Z,400.10
2022-11-09T08:19:08.798Z,408.65
2022-11-09T08:21:36.616Z,408.08
2022-11-09T08:24:05.520Z,390.40
2022-11-09T08:26:33.593Z,404.50
2022-11-09T08:29:01.224Z,386.65
2022-11-09T08:31:29.037Z,379.25
2022-11-09T08:33:58.030Z,394.83
2022-11-09T08:36:27.788Z,418.05
2022-11-09T08:38:55.492Z,402.10
2022-11-09T08:41:23.117Z,397.48
2022-11-09T08:43:50.768Z,396.75
2022-11-09T08:46:18.471Z,373.20
2022-11-09T08:48:46.163Z,402.50
2022-11-09T08:51:15.183Z,390.60
2022-11-09T08:53:42.847Z,382.17
2022-11-09T08:56:12.529Z,365.70
2022-11-09T08:58:40.604Z,381.52
2022-11-09T09:01:12.435Z,378.73
2022-11-09T09:03:44.332Z,379.25
2022-11-09T09:06:12.041Z,363.20
2022-11-09T09:08:41.005Z,380.08
2022-11-09T09:11:08.925Z,366.15
2022-11-09T09:13:40.507Z,379.35
2022-11-09T09:16:12.125Z,377.25
2022-11-09T09:18:39.779Z,368.13
2022-11-09T09:21:08.353Z,385.33
2022-11-09T09:23:36.487Z,369.48
2022-11-09T09:26:05.995Z,357.85
2022-11-09T09:28:34.734Z,377.35
2022-11-09T09:31:02.826Z,373.65
2022-11-09T09:33:30.493Z,352.70
2022-11-09T09:35:58.625Z,373.17
2022-11-09T09:38:26.905Z,358.52
2022-11-09T09:40:59.116Z,365.98
2022-11-09T09:43:39.737Z,368.80
2022-11-09T09:46:18.426Z,358.58
2022-11-09T09:48:52.562Z,355.45
2022-11-09T09:51:25.354Z,365.77
2022-11-09T09:53:58.744Z,376.70
2022-11-09T09:56:31.290Z,367.40
2022-11-09T09:59:07.227Z,362.38
2022-11-09T10:01:39.038Z,363.73
2022-11-09T10:04:16.758Z,369.42
2022-11-09T10:07:00.448Z,353.45
2022-11-09T10:09:44.791Z,379.73
2022-11-09T10:12:22.784Z,359.60
2022-11-09T10:15:14.227Z,359.50
2022-11-09T10:17:52.710Z,377.13
2022-11-09T10:20:36.366Z,394.58
2022-11-09T10:23:22.975Z,386.98
2022-11-09T10:26:04.296Z,343.15
2022-11-09T10:29:01.284Z,369.38
2022-11-09T10:31:25.185Z,379.02
2022-11-09T10:33:56.992Z,374.73
2022-11-09T10:36:31.752Z,377.83
2022-11-09T10:39:02.125Z,379.83
2022-11-09T10:41:48.601Z,365.95
2022-11-09T10:44:35.235Z,409.75
2022-11-09T10:47:24.040Z,391.38
2022-11-09T10:50:33.618Z,356.33
2022-11-09T10:53:21.620Z,360.65
2022-11-09T10:56:20.299Z,382.02
2022-11-09T10:59:37.619Z,368.73
2022-11-09T11:02:45.026Z,361.52
2022-11-09T11:05:33.348Z,367.08
2022-11-09T11:08:26.255Z,383.95
2022-11-09T11:11:37.392Z,357.90
2022-11-09T11:14:30.361Z,346.83
2022-11-09T11:17:24.076Z,381.70
2022-11-09T11:20:27.507Z,381.92
2022-11-09T11:23:16.257Z,386.50
2022-11-09T11:26:16.581Z,371.90
2022-11-09T11:29:11.051Z,374.88
2022-11-09T11:31:58.026Z,358.38
2022-11-09T11:35:01.549Z,375.08
2022-11-09T11:38:03.397Z,378.55
2022-11-09T11:41:01.706Z,374.33
2022-11-09T11:43:55.151Z,355.50
2022-11-09T11:46:47.161Z,368.83
2022-11-09T11:50:17.833Z,362.02
2022-11-09T11:53:14.232Z,384.92
2022-11-09T11:56:20.345Z,364.98
2022-11-09T11:59:34.318Z,381.00
2022-11-09T12:02:58.571Z,360.95
2022-11-09T12:06:07.240Z,371.77
2022-11-09T12:09:08.734Z,366.27
2022-11-09T12:12:12.911Z,366.88
2022-11-09T12:15:19.709Z,361.48
2022-11-09T12:18:19.128Z,371.35
2022-11-09T12:21:15.551Z,364.35
2022-11-09T12:24:20.891Z,382.83
2022-11-09T12:27:32.309Z,372.35
2022-11-09T12:30:22.044Z,383.25
2022-11-09T12:33:14.135Z,376.70
2022-11-09T12:36:06.218Z,366.42
2022-11-09T12:38:58.953Z,377.35
2022-11-09T12:41:49.855Z,381.42
2022-11-09T12:44:40.968Z,378.25
2022-11-09T12:47:31.561Z,378.73
2022-11-09T12:50:21.174Z,399.33
2022-11-09T12:53:08.528Z,391.10
2022-11-09T12:55:58.915Z,375.15
2022-11-09T12:58:46.795Z,402.95
2022-11-09T13:01:48.345Z,374.77
2022-11-09T13:04:35.273Z,399.85
2022-11-09T13:07:31.809Z,398.40
2022-11-09T13:10:34.342Z,362.88
2022-11-09T13:13:26.232Z,389.42
2022-11-09T13:16:33.755Z,394.15
2022-11-09T13:19:50.975Z,400.13
2022-11-09T13:23:00.159Z,379.58
2022-11-09T13:25:51.076Z,374.70
2022-11-09T13:29:10.600Z,407.52
2022-11-09T13:32:03.675Z,371.83
2022-11-09T13:34:52.065Z,371.17
2022-11-09T13:37:49.133Z,385.45
2022-11-09T13:40:44.680Z,408.95
2022-11-09T13:43:33.484Z,394.30
2022-11-09T13:46:30.204Z,393.90
2022-11-09T13:49:47.816Z,386.63
2022-11-09T13:52:52.213Z,388.98
2022-11-09T13:55:39.919Z,390.92
2022-11-09T13:58:31.392Z,351.13
2022-11-09T14:01:34.339Z,370.77
2022-11-09T14:04:27.061Z,388.17
2022-11-09T14:07:24.001Z,390.17
2022-11-09T14:10:22.405Z,389.90
2022-11-09T14:13:31.558Z,389.77
2022-11-09T14:16:26.537Z,382.13
2022-11-09T14:19:24.916Z,383.42
2022-11-09T14:22:17.607Z,389.85
2022-11-09T14:25:15.097Z,383.13
2022-11-09T14:28:01.458Z,389.77
2022-11-09T14:30:48.656Z,383.15
2022-11-09T14:33:36.317Z,380.42
2022-11-09T14:36:22.542Z,361.20
2022-11-09T14:39:23.341Z,381.00
2022-11-09T14:42:18.710Z,366.98
2022-11-09T14:45:07.985Z,387.75
2022-11-09T14:47:57.357Z,402.05
2022-11-09T14:50:43.822Z,363.40
2022-11-09T14:53:32.718Z,377.40
2022-11-09T14:56:23.038Z,367.42
2022-11-09T14:59:15.283Z,379.17
2022-11-09T15:02:05.496Z,370.60
2022-11-09T15:04:53.656Z,366.63
2022-11-09T15:07:39.976Z,375.23
2022-11-09T15:10:29.556Z,387.23
2022-11-09T15:13:17.846Z,361.08
2022-11-09T15:16:05.683Z,371.40
2022-11-09T15:18:51.628Z,379.58
2022-11-09T15:21:39.623Z,364.15
2022-11-09T15:24:28.034Z,365.60
2022-11-09T15:27:31.914Z,362.85
2022-11-09T15:30:31.441Z,362.23
2022-11-09T15:33:25.288Z,357.52
2022-11-09T15:36:26.356Z,359.15
2022-11-09T15:39:17.134Z,344.60
2022-11-09T15:42:03.742Z,361.48
2022-11-09T15:44:53.111Z,337.90
2022-11-09T15:47:40.697Z,331.30
2022-11-09T15:50:28.466Z,342.05
2022-11-09T15:53:15.306Z,361.50
2022-11-09T15:56:01.618Z,359.17
2022-11-09T15:58:49.167Z,370.40
2022-11-09T16:01:36.037Z,348.45
2022-11-09T16:04:23.389Z,372.10
2022-11-09T16:07:14.385Z,353.42
2022-11-09T16:10:00.710Z,369.33
2022-11-09T16:12:47.138Z,364.75
2022-11-09T16:15:34.356Z,371.63
2022-11-09T16:18:25.649Z,360.05
2022-11-09T16:21:15.403Z,357.02
2022-11-09T16:24:01.939Z,364.65
2022-11-09T16:26:48.638Z,345.38
2022-11-09T16:29:34.839Z,367.10
2022-11-09T16:32:21.309Z,359.27
2022-11-09T16:35:26.090Z,346.02
2022-11-09T16:38:14.080Z,336.85
2022-11-09T16:41:01.988Z,335.05
2022-11-09T16:43:51.226Z,351.08
2022-11-09T16:46:37.660Z,365.88
2022-11-09T16:49:23.797Z,369.95
2022-11-09T16:52:10.518Z,349.60
2022-11-09T16:54:58.183Z,354.38
2022-11-09T16:57:46.094Z,354.35
2022-11-09T17:00:55.728Z,375.83
2022-11-09T17:03:38.545Z,359.35
2022-11-09T17:06:25.157Z,364.23
2022-11-09T17:09:11.318Z,360.33
2022-11-09T17:11:59.245Z,343.00
2022-11-09T17:14:45.611Z,366.88
2022-11-09T17:17:31.747Z,345.58
2022-11-09T17:20:18.464Z,361.23
2022-11-09T17:23:04.659Z,373.70
2022-11-09T17:25:58.151Z,347.38
2022-11-09T17:28:46.101Z,345.05
2022-11-09T17:31:32.640Z,365.92
2022-11-09T17:34:19.042Z,353.85
2022-11-09T17:37:06.019Z,342.65
2022-11-09T17:39:52.328Z,373.10
2022-11-09T17:42:38.732Z,346.42
2022-11-09T17:45:26.474Z,360.13
2022-11-09T17:48:12.866Z,352.52
2022-11-09T17:50:59.114Z,349.50
2022-11-09T17:53:45.884Z,357.95
2022-11-09T17:56:34.099Z,354.02
2022-11-09T17:59:20.492Z,359.33
2022-11-09T18:02:07.791Z,343.80
2022-11-09T18:04:53.984Z,338.15
2022-11-09T18:07:40.388Z,359.83
2022-11-09T18:10:26.491Z,360.45
2022-11-09T18:13:12.755Z,342.48
2022-11-09T18:15:59.246Z,377.33
2022-11-09T18:18:47.141Z,362.15
2022-11-09T18:21:33.952Z,355.90
2022-11-09T18:24:20.426Z,349.55
2022-11-09T18:27:06.444Z,322.02
2022-11-09T18:29:56.117Z,369.90
2022-11-09T18:32:42.366Z,339.17
2022-11-09T18:35:29.720Z,369.42
2022-11-09T18:38:19.970Z,338.48
2022-11-09T18:41:09.686Z,343.90
2022-11-09T18:43:57.737Z,366.48
2022-11-09T18:46:43.889Z,330.30
2022-11-09T18:49:30.315Z,341.33
2022-11-09T18:52:17.809Z,346.02
2022-11-09T18:55:05.027Z,361.05
2022-11-09T18:57:51.035Z,370.25
2022-11-09T19:00:37.187Z,364.13
2022-11-09T19:03:23.608Z,364.42
2022-11-09T19:06:13.171Z,347.60
2022-11-09T19:09:18.398Z,380.35
2022-11-09T19:12:08.004Z,355.58
2022-11-09T19:14:54.386Z,331.35
2022-11-09T19:17:40.774Z,385.17
2022-11-09T19:20:27.121Z,352.15
2022-11-09T19:23:13.586Z,358.40
2022-11-09T19:26:02.891Z,367.63
2022-11-09T19:28:49.006Z,343.13
2022-11-09T19:31:35.926Z,360.00
2022-11-09T19:34:22.716Z,336.55
2022-11-09T19:37:09.689Z,354.38
2022-11-09T19:39:56.019Z,346.58
2022-11-09T19:42:43.730Z,333.98
2022-11-09T19:45:29.903Z,336.73
2022-11-09T19:48:16.011Z,345.75
2022-11-09T19:51:03.526Z,350.50
2022-11-09T19:53:50.750Z,339.05
2022-11-09T19:56:37.942Z,357.25
2022-11-09T19:59:25.798Z,339.77
2022-11-09T20:02:12.010Z,326.17
2022-11-09T20:04:58.535Z,354.88
2022-11-09T20:07:44.790Z,355.52
2022-11-09T20:10:30.958Z,342.45
2022-11-09T20:13:18.175Z,363.10
2022-11-09T20:16:07.907Z,340.42
2022-11-09T20:18:54.429Z,354.15
2022-11-09T20:21:41.095Z,345.65
2022-11-09T20:24:27.403Z,360.48
2022-11-09T20:27:14.515Z,344.00
2022-11-09T20:30:00.658Z,345.52
2022-11-09T20:32:48.671Z,347.45
2022-11-09T20:35:34.807Z,359.08
2022-11-09T20:38:21.856Z,356.10
2022-11-09T20:41:11.035Z,344.23
2022-11-09T20:43:57.671Z,339.02
2022-11-09T20:46:43.978Z,326.50
2022-11-09T20:49:31.603Z,354.85
2022-11-09T20:52:17.916Z,354.73
2022-11-09T20:55:04.655Z,353.92
2022-11-09T20:57:50.810Z,340.95
2022-11-09T21:00:37.887Z,353.70
2022-11-09T21:03:43.608Z,324.20
2022-11-09T21:06:51.549Z,313.55
2022-11-09T21:09:58.189Z,313.35
2022-11-09T21:13:04.722Z,331.45
2022-11-09T21:16:13.187Z,319.05
2022-11-09T21:19:19.742Z,317.63
2022-11-09T21:22:47.881Z,325.90
2022-11-09T21:26:11.866Z,305.38
2022-11-09T21:29:38.788Z,300.38
2022-11-09T21:32:45.327Z,296.00
2022-11-09T21:35:52.621Z,308.98
2022-11-09T21:39:02.101Z,309.85
2022-11-09T21:42:08.900Z,324.88
2022-11-09T21:45:15.744Z,307.15
2022-11-09T21:48:22.627Z,313.75
2022-11-09T21:51:29.598Z,303.30
2022-11-09T21:54:37.519Z,320.35
2022-11-09T21:57:44.032Z,322.90
2022-11-09T22:00:50.473Z,328.60
2022-11-09T22:03:56.911Z,316.27
2022-11-09T22:07:03.476Z,301.40
2022-11-09T22:10:11.839Z,308.70
2022-11-09T22:13:36.331Z,314.23
2022-11-09T22:16:42.875Z,292.42
2022-11-09T22:20:07.200Z,301.02
2022-11-09T22:23:13.830Z,296.13
2022-11-09T22:26:21.623Z,290.20
2022-11-09T22:29:28.130Z,302.67
2022-11-09T22:32:34.829Z,306.40
2022-11-09T22:35:41.543Z,293.52
2022-11-09T22:38:48.356Z,281.15
2022-11-09T22:41:56.409Z,291.52
2022-11-09T22:45:03.384Z,309.90
2022-11-09T22:48:10.171Z,315.48
2022-11-09T22:51:18.387Z,289.58
2022-11-09T22:54:24.947Z,303.60
2022-11-09T22:57:32.939Z,298.90
2022-11-09T23:00:41.580Z,288.38
2022-11-09T23:03:48.122Z,289.63
2022-11-09T23:06:54.700Z,294.30
2022-11-09T23:10:01.303Z,289.20
2022-11-09T23:13:08.967Z,284.23
2022-11-09T23:16:15.300Z,311.92
2022-11-09T23:19:21.672Z,285.15
2022-11-09T23:22:27.950Z,290.60
2022-11-09T23:25:52.176Z,261.02
2022-11-09T23:29:00.593Z,283.75
2022-11-09T23:32:07.005Z,272.17
2022-11-09T23:35:14.013Z,280.83
2022-11-09T23:38:20.409Z,263.00
2022-11-09T23:41:26.770Z,274.20
2022-11-09T23:44:34.586Z,283.55
2022-11-09T23:47:40.939Z,271.08
2022-11-09T23:50:48.609Z,296.50
2022-11-09T23:53:55.240Z,268.15
2022-11-09T23:57:01.534Z,251.85
